Main page
METAR-TAF:

METAR-TAF

Airports :

Morris Municipal Airport (James R. Washburn Field)

Morris, Illinois, United States

latitude: 41-25-31N, longitude: 088-25-07W, elevation: 584 ft

Current weather observation

The report was made 31 minutes ago, at 12:15 UTC
Calm wind
Temperature 70°F
Humidity 100%
Pressure 29.79 in. Hg
Visibility: 10 miles
Scattered clouds at a height of 300 ft

METAR: KC09 161215Z AUTO 00000KT 10SM SCT003 21/21 A2979 RMK AO2 T02070207

Time: 07:46 (12:46 UTC)


TAF: missing

Weather observations and forecasts of more than 4000 airports (METAR and TAF reports).

The available stations are represented by yellow and red dots on the map.

Hover mouse over dot to see the name of the station.

Then click to see weather observations and forecasts.

To change the map : click on the green buttons with a black cross to zoom in, on the green button with a dash to zoom out, or on the green arrows for adjacent maps.


METAR-TAF: